createdAt,value
2023-03-01T00:07:14.206Z,68.55
2023-03-01T00:17:14.207Z,68.81
2023-03-01T00:27:14.133Z,69.10
2023-03-01T00:37:14.246Z,69.28
2023-03-01T00:47:14.719Z,69.58
2023-03-01T00:57:15.178Z,69.81
2023-03-01T01:07:15.245Z,70.02
2023-03-01T01:17:15.276Z,70.27
2023-03-01T01:27:15.294Z,70.42
2023-03-01T01:37:15.222Z,70.70
2023-03-01T01:47:15.494Z,70.94
2023-03-01T01:57:15.235Z,71.21
2023-03-01T02:07:15.447Z,71.43
2023-03-01T02:17:15.400Z,71.80
2023-03-01T02:27:15.304Z,72.00
2023-03-01T02:37:16.794Z,72.04
2023-03-01T02:47:17.598Z,72.10
2023-03-01T02:57:17.717Z,72.16
2023-03-01T03:07:19.369Z,72.23
2023-03-01T03:17:19.434Z,72.32
2023-03-01T03:27:19.341Z,72.45
2023-03-01T03:37:38.880Z,72.65
2023-03-01T03:47:39.381Z,72.79
2023-03-01T03:57:39.425Z,72.94
2023-03-01T04:07:39.400Z,73.04
2023-03-01T04:17:40.020Z,73.07
2023-03-01T04:27:46.509Z,73.15
2023-03-01T04:37:47.066Z,73.18
2023-03-01T04:47:47.531Z,73.11
2023-03-01T04:57:47.521Z,73.10
2023-03-01T05:07:47.493Z,73.13
2023-03-01T05:17:47.498Z,73.12
2023-03-01T05:27:47.585Z,73.11
2023-03-01T05:37:47.771Z,73.08
2023-03-01T05:47:47.653Z,73.09
2023-03-01T05:57:47.551Z,73.03
2023-03-01T06:08:00.262Z,72.97
2023-03-01T06:18:00.735Z,72.90
2023-03-01T06:28:00.715Z,72.72
2023-03-01T06:38:00.738Z,72.51
2023-03-01T06:48:00.615Z,72.19
2023-03-01T06:58:00.718Z,71.74
2023-03-01T07:08:00.576Z,71.28
2023-03-01T07:18:00.563Z,70.78
2023-03-01T07:28:00.719Z,70.23
2023-03-01T07:38:00.639Z,69.51
2023-03-01T07:48:00.705Z,68.89
2023-03-01T07:58:00.834Z,67.95
2023-03-01T08:08:00.788Z,67.09
2023-03-01T08:18:01.335Z,66.25
2023-03-01T08:28:01.655Z,65.49
2023-03-01T08:38:03.976Z,63.31
2023-03-01T08:48:23.060Z,62.76
2023-03-01T08:58:28.767Z,59.70
2023-03-01T09:08:28.774Z,56.24
2023-03-01T09:18:28.803Z,53.46
2023-03-01T09:28:30.327Z,52.76
2023-03-01T09:38:30.851Z,51.81
2023-03-01T09:48:30.760Z,49.50
2023-03-01T09:58:30.823Z,47.96
2023-03-01T10:08:31.695Z,47.98
2023-03-01T10:18:33.176Z,47.31
2023-03-01T10:28:32.825Z,46.96
2023-03-01T10:38:33.140Z,46.20
2023-03-01T10:48:33.006Z,46.41
2023-03-01T10:58:52.302Z,46.83
2023-03-01T11:08:54.446Z,46.77
2023-03-01T11:18:58.080Z,46.96
2023-03-01T11:28:58.617Z,46.99
2023-03-01T11:38:59.035Z,46.95
2023-03-01T11:48:59.872Z,47.08
2023-03-01T11:58:59.958Z,47.28
2023-03-01T12:09:02.941Z,47.58
2023-03-01T12:19:03.008Z,48.09
2023-03-01T12:29:03.101Z,48.46
2023-03-01T12:39:03.011Z,48.73
2023-03-01T12:49:02.977Z,49.40
2023-03-01T12:59:03.116Z,49.52
2023-03-01T13:09:03.027Z,49.48
2023-03-01T13:19:22.426Z,48.92
2023-03-01T13:29:23.184Z,49.00
2023-03-01T13:39:23.096Z,49.03
2023-03-01T13:49:23.048Z,49.08
2023-03-01T13:59:23.148Z,49.15
2023-03-01T14:09:24.590Z,49.51
2023-03-01T14:19:33.296Z,49.86
2023-03-01T14:29:28.504Z,49.94
2023-03-01T14:39:31.130Z,49.93
2023-03-01T14:49:31.125Z,49.98
2023-03-01T14:59:31.190Z,49.81
2023-03-01T15:09:31.137Z,49.83
2023-03-01T15:19:31.186Z,49.44
2023-03-01T15:29:31.390Z,49.38
2023-03-01T15:39:31.184Z,49.02
2023-03-01T15:49:31.182Z,49.12
2023-03-01T15:59:31.244Z,49.12
2023-03-01T16:09:31.231Z,49.19
2023-03-01T16:19:31.218Z,49.53
2023-03-01T16:29:31.305Z,49.92
2023-03-01T16:39:31.276Z,50.14
2023-03-01T16:49:31.253Z,50.55
2023-03-01T16:59:31.459Z,50.84
2023-03-01T17:09:31.641Z,51.29
2023-03-01T17:19:32.584Z,51.82
2023-03-01T17:29:32.416Z,52.29
2023-03-01T17:39:34.330Z,52.83
2023-03-01T17:49:34.382Z,53.24
2023-03-01T17:59:34.426Z,53.61
2023-03-01T18:09:34.354Z,53.87
2023-03-01T18:19:34.518Z,54.27
2023-03-01T18:29:34.482Z,54.51
2023-03-01T18:39:34.418Z,54.80
2023-03-01T18:49:34.452Z,55.05
2023-03-01T18:59:35.262Z,55.31
2023-03-01T19:09:35.569Z,55.62
2023-03-01T19:19:35.914Z,55.91
2023-03-01T19:29:36.446Z,56.18
2023-03-01T19:39:36.490Z,56.52
2023-03-01T19:49:37.420Z,56.73
2023-03-01T19:59:37.499Z,56.98
2023-03-01T20:09:37.666Z,57.24
2023-03-01T20:19:37.836Z,57.48
2023-03-01T20:29:37.593Z,57.69
2023-03-01T20:39:37.574Z,57.90
2023-03-01T20:49:37.573Z,58.16
2023-03-01T20:59:37.724Z,58.42
2023-03-01T21:09:37.664Z,58.76
2023-03-01T21:19:37.920Z,59.17
2023-03-01T21:29:37.584Z,59.38
2023-03-01T21:39:37.657Z,59.72
2023-03-01T21:49:37.722Z,59.92
2023-03-01T21:59:37.625Z,60.17
2023-03-01T22:09:38.511Z,60.50
2023-03-01T22:19:38.684Z,60.82
2023-03-01T22:29:41.610Z,61.02
2023-03-01T22:39:41.704Z,61.22
2023-03-01T22:49:42.135Z,61.40
2023-03-01T22:59:42.766Z,61.74
2023-03-01T23:09:42.737Z,61.94
2023-03-01T23:19:42.796Z,62.24
2023-03-01T23:29:42.792Z,62.43
2023-03-01T23:39:42.760Z,62.69
2023-03-01T23:49:42.888Z,62.93
2023-03-01T23:59:43.286Z,63.11
